This is the latest recevied weather packets stored in our database for station/object SP3VBV-2. If no packets are shown the sender has not sent any weather packets the latest 10 day(s).
| Time | Temp. | Humidity | Pressure | Rain* | Wind** | Luminosity | Snow |
|---|---|---|---|---|---|---|---|
| 1777752118 | 17.22° C | 44% | 1018.9 hPa | - | - | - | - |
| 1777751518 | 17.22° C | 44% | 1018.9 hPa | - | - | - | - |
| 1777750918 | 17.78° C | 43% | 1018.9 hPa | - | - | - | - |
| 1777750335 | 17.78° C | 43% | 1018.9 hPa | - | - | - | - |
| 1777749718 | 17.78° C | 42% | 1018.8 hPa | - | - | - | - |
| 1777749118 | 17.78° C | 44% | 1018.8 hPa | - | - | - | - |
| 1777748518 | 17.78° C | 44% | 1018.8 hPa | - | - | - | - |
| 1777747318 | 17.78° C | 46% | 1018.8 hPa | - | - | - | - |
| 1777746718 | 18.33° C | 47% | 1018.7 hPa | - | - | - | - |
| 1777746118 | 18.33° C | 44% | 1018.6 hPa | - | - | - | - |
| 1777745518 | 18.89° C | 44% | 1018.6 hPa | - | - | - | - |
| 1777744918 | 19.44° C | 44% | 1018.6 hPa | - | - | - | - |
| 1777744318 | 20° C | 41% | 1018.6 hPa | - | - | - | - |
| 1777743718 | 21.11° C | 40% | 1018.7 hPa | - | - | - | - |
| 1777743118 | 21.67° C | 40% | 1018.7 hPa | - | - | - | - |
| 1777742518 | 22.78° C | 37% | 1018.8 hPa | - | - | - | - |
| 1777742510 | 23.33° C | 36% | 1018.8 hPa | - | - | - | - |
| 1777741910 | 22.78° C | 36% | 1018.8 hPa | - | - | - | - |
| 1777741310 | 22.78° C | 35% | 1019 hPa | - | - | - | - |
| 1777740710 | 22.78° C | 37% | 1019 hPa | - | - | - | - |
| 1777740110 | 23.33° C | 32% | 1019 hPa | - | - | - | - |
| 1777739510 | 26.11° C | 30% | 1019.1 hPa | - | - | - | - |
| 1777738318 | 25.56° C | 32% | 1019.2 hPa | - | - | - | - |
| 1777737117 | 23.33° C | 34% | 1019.6 hPa | - | - | - | - |
| 1777736517 | 23.33° C | 34% | 1019.8 hPa | - | - | - | - |
* Rain since midnight (hover to see other rain measurements)
** Current wind speed in m/s (hover to see current wind gust speed)